Corona Range LRC

Feb. 28, 2020, 10:20 a.m.

  • imperial
Air Temperature RH Dewpoint Wind Chill Heat Index Wind Speed Wind Direction Precipitation Solar Radiation Soil Temperature
Date Time Max Mean Mean Total Total
US/Mountain F % F F F MPH MPH MPH deg. deg. in. MJ/m^2 F
2020-02-27 10:20 45.03 22.87 9.28 36.92 45.03 20.65 20.65 15.64 309.2 294.5 0.0 0.132 34.32
2020-02-27 10:25 45.09 22.7 9.16 38.34 45.09 14.92 20.65 15.55 299.7 299.7 0.0 0.134 34.32
2020-02-27 10:30 45.52 22.83 9.65 38.53 45.52 16.35 19.75 15.82 315.1 296.4 0.0 0.136 34.32
2020-02-27 10:35 45.95 22.18 9.37 38.7 45.95 17.96 21.54 15.41 290.5 298.4 0.0 0.138 34.32
2020-02-27 10:40 46.18 22.49 9.88 39.99 46.18 14.03 19.57 15.14 289.7 291.8 0.0 0.139 34.32
2020-02-27 10:45 46.74 21.84 9.7 41.17 46.74 12.42 17.43 13.71 290.6 291.2 0.0 0.141 34.36
2020-02-27 10:50 47.1 21.12 9.25 39.57 47.1 21.01 21.01 15.68 339.7 304.0 0.0 0.142 34.36
2020-02-27 10:55 47.03 21.94 10.04 41.75 47.03 11.7 20.47 14.47 281.5 300.9 0.0 0.144 34.41
2020-02-27 11:00 47.21 21.84 10.09 40.63 47.21 16.71 19.22 15.75 311.4 294.7 0.0 0.145 34.45
2020-02-27 11:05 47.26 21.46 9.74 41.62 47.26 13.13 21.54 16.93 312.0 303.8 0.0 0.147 34.52
2020-02-27 11:10 48.38 20.47 9.62 42.06 48.38 17.07 18.68 13.74 308.8 299.8 0.0 0.148 34.59
2020-02-27 11:15 48.43 20.57 9.78 42.46 48.43 15.64 19.75 15.5 267.2 298.4 0.0 0.149 34.65
2020-02-27 11:20 48.31 21.39 10.55 44.7 48.31 7.96 19.57 14.18 307.5 304.9 0.0 0.15 34.75
2020-02-27 11:25 47.7 21.22 9.85 41.17 47.7 17.07 20.29 15.41 276.1 295.9 0.0 0.151 34.86
2020-02-27 11:30 48.69 19.96 9.32 42.91 48.69 15.1 21.9 14.79 317.7 292.2 0.0 0.152 35.01
2020-02-27 11:35 48.38 20.13 9.25 43.5 48.38 11.52 19.75 14.0 324.8 302.7 0.0 0.152 35.11
2020-02-27 11:40 49.05 20.5 10.21 44.29 49.05 11.7 17.96 12.91 284.9 288.5 0.0 0.153 35.26
2020-02-27 11:45 49.15 19.62 9.32 44.06 49.15 12.95 18.32 13.11 308.0 297.6 0.0 0.153 35.42
2020-02-27 11:50 49.77 19.62 9.83 45.52 49.77 10.63 18.32 12.73 285.3 285.3 0.0 0.154 35.56
2020-02-27 11:55 49.96 19.03 9.31 44.86 49.96 13.85 21.72 14.09 271.3 284.1 0.0 0.154 35.73
2020-02-27 12:00 49.41 19.0 8.82 44.85 49.41 11.34 16.89 13.89 303.9 307.0 0.0 0.154 35.91
2020-02-27 12:05 49.28 18.93 8.63 43.72 49.28 14.92 15.99 12.37 301.6 291.8 0.0 0.154 36.05
2020-02-27 12:10 50.32 18.73 9.26 50.32 50.32 9.04 15.1 10.49 299.5 296.1 0.0 0.155 36.25
2020-02-27 12:15 49.77 18.18 8.13 44.38 49.77 14.74 16.35 12.77 309.1 305.3 0.0 0.154 36.41
2020-02-27 12:20 50.25 18.97 9.48 50.25 50.25 13.31 14.56 10.74 260.3 299.0 0.0 0.154 36.61
2020-02-27 12:25 50.86 17.29 7.92 50.86 50.86 14.74 15.99 11.41 323.0 300.0 0.0 0.154 36.79
2020-02-27 12:30 50.25 18.11 8.45 50.25 50.25 10.98 16.35 11.1 313.4 310.5 0.0 0.154 36.97
2020-02-27 12:35 50.74 17.94 8.64 50.74 50.74 15.28 17.96 12.82 311.6 317.5 0.0 0.154 37.18
2020-02-27 12:40 50.74 17.39 7.95 50.74 50.74 12.06 16.35 12.1 273.6 297.2 0.0 0.153 37.38
2020-02-27 12:45 50.36 17.5 7.78 50.36 50.36 9.91 18.86 13.53 315.8 310.9 0.0 0.153 37.56
2020-02-27 12:50 50.92 16.95 7.53 50.92 50.92 16.53 19.93 14.16 317.9 322.5 0.0 0.153 37.78
2020-02-27 12:55 50.99 16.92 7.55 50.99 50.99 9.91 15.1 11.57 282.3 312.9 0.0 0.147 37.98
2020-02-27 13:00 50.92 16.95 7.53 50.92 50.92 10.63 14.38 11.03 324.6 307.1 0.0 0.15 38.19
2020-02-27 13:05 51.17 16.27 6.83 51.17 51.17 14.56 17.07 11.52 324.7 319.2 0.0 0.149 38.41
2020-02-27 13:10 50.61 17.43 7.9 50.61 50.61 6.35 13.67 10.18 270.1 313.5 0.0 0.148 38.59
2020-02-27 13:15 51.48 15.93 6.61 51.48 51.48 13.49 13.85 9.87 255.3 303.8 0.0 0.147 38.79
2020-02-27 13:20 51.1 16.75 7.41 51.1 51.1 10.63 12.42 9.53 321.0 298.6 0.0 0.146 38.98
2020-02-27 13:25 51.91 16.78 8.12 51.91 51.91 4.38 12.59 7.83 294.4 317.9 0.0 0.144 39.18
2020-02-27 13:30 51.22 16.37 7.01 51.22 51.22 8.86 13.85 10.92 302.4 323.2 0.0 0.143 39.36
2020-02-27 13:35 51.78 16.47 7.6 51.78 51.78 13.49 15.82 9.42 331.5 314.4 0.0 0.141 39.54
2020-02-27 13:40 51.4 16.17 6.89 51.4 51.4 9.4 14.38 10.89 4.7 323.8 0.0 0.14 39.74
2020-02-27 13:45 52.65 15.86 7.47 52.65 52.65 11.34 14.92 9.87 317.8 317.5 0.0 0.139 39.94
2020-02-27 13:50 52.45 15.35 6.59 52.45 52.45 8.48 14.92 9.44 265.2 302.6 0.0 0.137 40.1
2020-02-27 13:55 52.65 15.38 6.79 52.65 52.65 10.09 13.13 9.4 324.5 318.2 0.0 0.135 40.3
2020-02-27 14:00 52.88 14.87 6.24 52.88 52.88 8.48 13.13 10.6 309.3 288.3 0.0 0.133 40.48
2020-02-27 14:05 52.83 15.18 6.65 52.83 52.83 8.12 11.7 8.19 298.1 294.3 0.0 0.131 40.66
2020-02-27 14:10 53.06 14.77 6.23 53.06 53.06 14.92 16.17 11.65 320.4 285.4 0.0 0.129 40.84
2020-02-27 14:15 52.21 15.14 6.09 52.21 52.21 8.12 16.35 9.69 301.6 300.9 0.0 0.127 41.0
2020-02-27 14:20 52.65 15.25 6.6 52.65 52.65 5.64 11.7 9.02 323.1 303.8 0.0 0.124 41.18
2020-02-27 14:25 52.75 13.74 4.41 52.75 52.75 8.3 12.42 5.97 311.6 303.7 0.0 0.121 41.32
2020-02-27 14:30 53.19 13.54 4.43 53.19 53.19 12.59 13.67 10.07 320.4 303.3 0.0 0.119 41.49
2020-02-27 14:35 52.65 13.44 3.84 52.65 52.65 9.04 14.03 9.22 323.8 306.2 0.0 0.116 41.65
2020-02-27 14:40 52.95 14.7 6.04 52.95 52.95 9.4 14.56 9.82 301.4 309.8 0.0 0.114 41.81
2020-02-27 14:45 53.06 15.11 6.73 53.06 53.06 10.45 15.1 8.34 291.0 304.8 0.0 0.111 41.95
2020-02-27 14:50 53.37 14.77 6.48 53.37 53.37 8.12 14.38 9.82 256.2 269.5 0.0 0.109 42.1
2020-02-27 14:55 53.85 14.87 7.02 53.85 53.85 8.48 13.49 9.1 305.8 293.1 0.0 0.106 42.26
2020-02-27 15:00 53.8 14.29 6.1 53.8 53.8 12.95 13.85 8.72 276.5 285.7 0.0 0.103 42.37
2020-02-27 15:05 53.74 14.08 5.73 53.74 53.74 7.78 14.03 10.51 322.3 297.8 0.0 0.1 42.49
2020-02-27 15:10 54.34 14.32 6.58 54.34 54.34 6.0 9.04 6.2 334.8 292.0 0.0 0.098 42.64
2020-02-27 15:15 54.59 13.27 5.11 54.59 54.59 11.7 13.31 7.99 301.9 293.9 0.0 0.095 42.75
2020-02-27 15:20 53.55 14.32 5.94 53.55 53.55 10.98 14.2 10.33 300.9 297.3 0.0 0.091 42.85
2020-02-27 15:25 54.46 14.25 6.57 54.46 54.46 8.86 11.7 7.49 273.4 297.7 0.0 0.089 42.96
2020-02-27 15:30 54.03 14.66 6.85 54.03 54.03 11.7 13.49 8.88 253.6 256.3 0.0 0.085 43.05
2020-02-27 15:35 53.91 14.15 5.97 53.91 53.91 6.35 15.99 10.78 232.8 259.0 0.0 0.083 43.16
2020-02-27 15:40 54.16 13.57 5.26 54.16 54.16 10.45 15.28 10.78 274.9 265.6 0.0 0.08 43.23
2020-02-27 15:45 54.9 13.64 5.96 54.9 54.9 7.78 11.88 9.15 253.1 277.6 0.0 0.077 43.34
2020-02-27 15:50 53.67 13.88 5.36 53.67 53.67 8.48 13.31 10.36 288.9 264.9 0.0 0.074 43.41
2020-02-27 15:55 53.73 13.06 4.08 53.73 53.73 8.68 14.74 9.91 309.4 294.3 0.0 0.071 43.48
2020-02-27 16:00 53.85 13.57 5.01 53.85 53.85 4.92 13.67 9.48 293.8 300.8 0.0 0.067 43.56
2020-02-27 16:05 54.28 13.88 5.85 54.28 54.28 5.46 10.09 7.49 237.2 303.6 0.0 0.064 43.63
2020-02-27 16:10 53.8 14.09 5.79 53.8 53.8 8.12 14.56 9.35 274.7 291.3 0.0 0.06 43.68
2020-02-27 16:15 54.18 13.91 5.81 54.18 54.18 8.48 11.34 7.94 256.7 277.3 0.0 0.057 43.74
2020-02-27 16:20 54.0 12.99 4.17 54.0 54.0 9.22 12.59 8.88 301.9 286.3 0.0 0.054 43.75
2020-02-27 16:25 53.8 13.98 5.62 53.8 53.8 5.82 10.8 7.76 301.0 293.0 0.0 0.051 43.83
2020-02-27 16:30 53.31 14.36 5.82 53.31 53.31 7.78 12.95 8.88 302.5 301.2 0.0 0.047 43.88
2020-02-27 16:35 53.19 15.28 7.08 53.19 53.19 7.07 13.85 9.17 271.6 283.4 0.0 0.044 43.92
2020-02-27 16:40 52.75 15.14 6.53 52.75 52.75 10.45 12.95 9.69 261.3 281.0 0.0 0.041 43.93
2020-02-27 16:45 52.57 15.31 6.63 52.57 52.57 16.53 16.53 10.49 260.3 264.2 0.0 0.038 43.95
2020-02-27 16:50 52.34 14.9 5.84 52.34 52.34 6.0 12.77 9.1 277.8 291.1 0.0 0.035 43.97
2020-02-27 16:55 52.45 15.35 6.59 52.45 52.45 7.96 10.45 8.37 282.9 273.7 0.0 0.032 44.01
2020-02-27 17:00 52.09 15.11 5.95 52.09 52.09 9.04 10.98 9.06 304.3 285.7 0.0 0.029 44.01
2020-02-27 17:05 51.71 15.83 6.67 51.71 51.71 8.48 12.77 7.92 284.8 294.2 0.0 0.026 44.02
2020-02-27 17:10 51.53 15.65 6.27 51.53 51.53 9.91 11.52 8.12 269.7 280.5 0.0 0.023 44.02
2020-02-27 17:15 51.22 16.41 7.06 51.22 51.22 7.78 12.06 8.21 280.8 279.5 0.0 0.021 44.02
2020-02-27 17:20 50.86 16.85 7.35 50.86 50.86 7.61 11.88 7.56 269.3 281.4 0.0 0.018 44.02
2020-02-27 17:25 50.56 17.5 7.94 50.56 50.56 5.46 8.86 6.33 252.1 267.5 0.0 0.015 44.01
2020-02-27 17:30 49.89 17.64 7.57 47.0 49.89 7.07 9.91 6.73 260.7 263.8 0.0 0.012 44.01
2020-02-27 17:35 49.28 18.25 7.82 46.88 49.28 5.82 8.48 6.22 259.3 263.2 0.0 0.01 43.97
2020-02-27 17:40 48.49 19.04 8.1 46.58 48.49 4.74 6.17 5.32 238.3 252.7 0.0 0.007 43.95
2020-02-27 17:45 47.44 19.92 8.24 46.01 47.44 3.85 5.64 4.14 244.7 246.4 0.0 0.003 43.9
2020-02-27 17:50 45.73 21.32 8.31 43.62 45.73 4.38 5.28 4.52 226.1 230.1 0.0 0.0 43.86
2020-02-27 17:55 44.56 22.14 8.16 42.12 44.56 4.56 5.1 4.5 236.7 228.3 0.0 0.0 43.84
2020-02-27 18:00 43.77 22.52 7.87 41.63 43.77 4.03 5.46 4.7 234.8 237.4 0.0 0.0 43.81
2020-02-27 18:05 43.54 22.79 7.94 41.06 43.54 4.38 5.1 4.52 248.7 239.3 0.0 0.0 43.75
2020-02-27 18:10 42.87 23.58 8.13 40.01 42.87 4.74 4.92 4.32 230.8 231.0 0.0 0.0 43.7
2020-02-27 18:15 41.7 25.08 8.5 39.23 41.7 4.03 4.74 4.32 247.4 237.7 0.0 0.0 43.65
2020-02-27 18:20 40.86 25.91 8.49 38.1 40.86 4.21 4.56 3.96 262.8 248.7 0.0 0.0 43.59
2020-02-27 18:25 39.69 27.31 8.65 36.28 39.69 4.74 5.1 4.3 234.2 245.7 0.0 0.0 43.56
2020-02-27 18:30 39.33 27.79 8.73 36.01 39.33 4.56 5.46 4.41 238.9 245.8 0.0 0.0 43.48
2020-02-27 18:35 39.45 27.62 8.7 35.59 39.45 5.28 6.0 5.23 245.0 241.3 0.0 0.0 43.41
2020-02-27 18:40 39.04 28.0 8.65 34.47 39.04 6.17 6.17 5.3 239.2 243.9 0.0 0.0 43.34
2020-02-27 18:45 38.98 27.96 8.57 35.04 38.98 5.28 6.0 5.46 234.6 239.3 0.0 0.0 43.29
2020-02-27 18:50 38.5 28.62 8.66 34.89 38.5 4.74 6.35 5.73 245.3 237.8 0.0 0.0 43.2
2020-02-27 18:55 37.2 30.12 8.67 32.53 37.2 5.82 6.0 4.72 236.0 250.0 0.0 0.0 43.12
2020-02-27 19:00 37.09 30.74 9.03 32.53 37.09 5.64 6.53 5.68 238.3 247.9 0.0 0.0 43.05
2020-02-27 19:05 37.45 30.12 8.89 32.83 37.45 5.82 6.53 5.73 255.8 253.4 0.0 0.0 42.98
2020-02-27 19:10 38.44 28.86 8.8 33.3 38.44 6.89 7.25 5.97 259.9 255.5 0.0 0.0 42.89
2020-02-27 19:15 39.0 28.31 8.86 33.97 39.0 6.89 7.43 6.51 260.1 262.7 0.0 0.0 42.82
2020-02-27 19:20 39.07 28.42 9.01 35.14 39.07 5.28 7.43 5.93 262.1 260.8 0.0 0.0 42.75
2020-02-27 19:25 38.89 28.25 8.72 34.42 38.89 6.0 7.25 5.75 279.7 264.5 0.0 0.0 42.66
2020-02-27 19:30 37.09 30.57 8.91 31.79 37.09 6.71 6.71 4.99 265.3 273.9 0.0 0.0 42.58
2020-02-27 19:35 38.39 28.35 8.36 33.24 38.39 6.89 7.78 6.85 262.0 262.9 0.0 0.0 42.48
2020-02-27 19:40 37.22 30.88 9.24 32.42 37.22 6.0 7.96 6.2 275.9 275.8 0.0 0.0 42.39
2020-02-27 19:45 36.18 32.59 9.53 31.31 36.18 5.82 7.25 6.44 264.9 277.0 0.0 0.0 42.3
2020-02-27 19:50 35.74 32.59 9.14 29.82 35.74 7.25 7.25 6.38 276.3 275.2 0.0 0.0 42.22
2020-02-27 19:55 36.36 31.08 8.63 31.39 36.36 6.0 8.3 6.98 274.1 270.1 0.0 0.0 42.12
2020-02-27 20:00 35.26 33.17 9.11 30.64 35.26 5.28 7.25 6.13 274.8 276.0 0.0 0.0 42.06
2020-02-27 20:05 34.9 33.2 8.81 29.66 34.9 6.0 7.07 6.06 272.9 278.8 0.0 0.0 41.95
2020-02-27 20:10 35.46 32.79 9.03 30.59 35.46 5.64 6.35 5.61 267.2 274.5 0.0 0.0 41.88
2020-02-27 20:15 34.77 33.62 8.98 29.78 34.77 5.64 6.53 5.61 275.1 280.9 0.0 0.0 41.81
2020-02-27 20:20 35.33 32.42 8.66 30.17 35.33 6.0 6.35 5.88 266.0 269.4 0.0 0.0 41.7
2020-02-27 20:25 35.71 32.42 9.0 30.75 35.71 5.82 6.53 5.37 275.6 271.7 0.0 0.0 41.65
2020-02-27 20:30 36.37 31.47 8.92 31.68 36.37 5.64 6.0 5.64 251.2 265.8 0.0 0.0 41.54
2020-02-27 20:35 36.63 30.92 8.75 32.11 36.63 5.46 6.17 5.5 253.1 257.9 0.0 0.0 41.47
2020-02-27 20:40 36.68 31.29 9.06 32.76 36.68 4.74 5.82 5.03 265.6 261.7 0.0 0.0 41.4
2020-02-27 20:45 35.33 33.48 9.38 31.03 35.33 4.92 5.28 4.16 272.9 283.8 0.0 0.0 41.32
2020-02-27 20:50 34.47 34.23 9.11 30.01 34.47 4.92 5.64 5.23 268.0 269.7 0.0 0.0 41.23
2020-02-27 20:55 34.47 34.1 9.02 30.01 34.47 4.92 5.46 4.94 257.6 260.9 0.0 0.0 41.16
2020-02-27 21:00 34.34 34.13 8.93 29.71 34.34 5.1 5.82 5.17 255.7 258.5 0.0 0.0 41.05
2020-02-27 21:05 34.11 34.2 8.77 29.75 34.11 4.74 5.64 5.03 259.7 261.6 0.0 0.0 40.98
2020-02-27 21:10 33.37 35.77 9.11 28.89 33.37 4.74 5.46 5.03 295.2 268.2 0.0 0.0 40.93
2020-02-27 21:15 31.96 38.23 9.34 27.6 31.96 4.38 5.28 4.79 270.8 274.7 0.0 0.0 40.84
2020-02-27 21:20 30.79 39.84 9.2 26.24 30.79 4.38 5.46 4.83 278.7 282.0 0.0 0.0 40.75
2020-02-27 21:25 30.92 39.19 8.95 24.92 30.92 6.0 6.35 5.44 274.0 274.1 0.0 0.0 40.68
2020-02-27 21:30 31.35 38.34 8.85 25.43 31.35 6.0 6.53 5.82 249.3 269.9 0.0 0.0 40.59
2020-02-27 21:35 31.53 38.07 8.85 25.94 31.53 5.64 6.17 5.39 259.3 269.6 0.0 0.0 40.5
2020-02-27 21:40 31.73 37.52 8.71 26.02 31.73 5.82 6.35 5.73 262.5 267.8 0.0 0.0 40.42
2020-02-27 21:45 31.66 38.1 8.98 26.24 31.66 5.46 5.82 5.26 272.6 268.3 0.0 0.0 40.35
2020-02-27 21:50 31.66 36.94 8.3 26.09 31.66 5.64 5.82 5.21 252.4 267.9 0.0 0.0 40.26
2020-02-27 21:55 32.59 35.61 8.32 28.7 32.59 4.03 5.64 4.81 265.6 260.4 0.0 0.0 40.21
2020-02-27 22:00 32.16 36.64 8.57 27.48 32.16 4.74 5.28 4.72 259.1 265.7 0.0 0.0 40.12
2020-02-27 22:05 31.68 37.94 8.91 28.74 31.68 3.13 4.56 3.76 245.7 253.4 0.0 0.0 40.05
2020-02-27 22:10 30.25 40.74 9.21 30.25 30.25 1.88 3.49 2.15 250.4 251.9 0.0 0.0 39.97
2020-02-27 22:15 29.03 42.62 9.11 29.03 29.03 1.7 2.42 1.63 272.8 252.3 0.0 0.0 39.9
2020-02-27 22:20 29.77 39.75 8.22 26.09 29.77 3.49 3.67 3.04 270.6 274.0 0.0 0.0 39.83
2020-02-27 22:25 30.61 38.55 8.31 27.53 30.61 3.13 3.31 3.0 275.8 275.8 0.0 0.0 39.76
2020-02-27 22:30 30.02 40.19 8.7 30.02 30.02 2.24 3.13 1.7 267.2 252.2 0.0 0.0 39.67
2020-02-27 22:35 31.06 37.36 8.02 31.06 31.06 2.24 2.95 2.46 273.7 270.8 0.0 0.0 39.61
2020-02-27 22:40 30.99 38.28 8.49 30.99 30.99 2.06 2.24 0.92 324.9 302.6 0.0 0.0 39.54
2020-02-27 22:45 31.55 36.78 8.1 31.55 31.55 0.81 2.24 1.77 342.4 334.1 0.0 0.0 39.45
2020-02-27 22:50 31.75 35.89 7.74 31.75 31.75 0.0 1.7 0.72 89.5 44.1 0.0 0.0 39.38
2020-02-27 22:55 32.36 35.31 7.92 32.36 32.36 1.34 1.34 0.34 72.7 92.9 0.0 0.0 39.31
2020-02-27 23:00 32.85 34.32 7.73 32.85 32.85 1.16 1.7 1.01 85.3 82.4 0.0 0.0 39.24
2020-02-27 23:05 33.96 33.84 8.4 33.96 33.96 2.06 2.06 0.22 216.2 141.9 0.0 0.0 39.16
2020-02-27 23:10 32.61 35.28 8.13 32.61 32.61 1.88 2.77 2.06 171.3 189.5 0.0 0.0 39.09
2020-02-27 23:15 31.75 35.66 7.6 28.58 31.75 3.31 4.03 1.95 248.5 179.5 0.0 0.0 39.02
2020-02-27 23:20 32.86 34.73 8.0 28.83 32.86 4.21 5.28 3.6 235.6 228.4 0.0 0.0 38.95
2020-02-27 23:25 32.74 35.42 8.33 32.74 32.74 2.95 5.28 3.53 245.3 239.7 0.0 0.0 38.88
2020-02-27 23:30 32.13 36.1 8.21 32.13 32.13 2.24 3.31 2.82 264.9 273.0 0.0 0.0 38.8
2020-02-27 23:35 31.64 37.03 8.33 31.64 31.64 2.24 3.13 2.33 284.9 283.7 0.0 0.0 38.75
2020-02-27 23:40 31.14 37.47 8.14 27.65 31.14 3.49 3.49 2.82 244.5 257.9 0.0 0.0 38.68
2020-02-27 23:45 30.7 38.56 8.39 26.52 30.7 4.03 4.56 3.44 234.2 245.6 0.0 0.0 38.61
2020-02-27 23:50 29.35 41.78 8.96 24.96 29.35 4.03 4.56 4.14 223.2 230.3 0.0 0.0 38.57
2020-02-27 23:55 26.1 49.71 9.85 21.19 26.1 4.03 5.28 4.65 225.6 217.4 0.0 0.0 38.52
2020-02-28 00:00 26.76 45.4 8.44 20.61 26.76 5.28 5.28 4.7 260.5 241.3 0.0 0.0 38.44
2020-02-28 00:05 33.78 33.5 8.02 28.33 33.78 6.0 7.25 5.79 275.2 268.8 0.0 0.0 38.37
2020-02-28 00:10 35.38 30.97 7.69 30.5 35.38 5.64 7.07 5.73 271.4 269.3 0.0 0.0 38.34
2020-02-28 00:15 35.08 31.59 7.86 31.76 35.08 3.85 5.82 4.43 264.3 269.0 0.0 0.0 38.26
2020-02-28 00:20 34.47 31.76 7.44 31.26 34.47 3.67 4.03 3.58 273.1 277.4 0.0 0.0 38.23
2020-02-28 00:25 33.96 32.44 7.47 30.1 33.96 4.21 4.38 3.53 268.8 268.5 0.0 0.0 38.16
2020-02-28 00:30 34.32 32.27 7.67 30.17 34.32 4.56 5.82 4.54 234.8 256.6 0.0 0.0 38.12
2020-02-28 00:35 33.22 34.25 8.02 29.83 33.22 3.67 6.53 4.59 249.7 246.8 0.0 0.0 38.07
2020-02-28 00:40 32.85 34.46 7.82 28.45 32.85 4.56 6.0 4.97 244.5 247.6 0.0 0.0 38.03
2020-02-28 00:45 32.11 35.82 8.02 27.95 32.11 4.21 5.1 4.41 223.0 240.6 0.0 0.0 37.98
2020-02-28 00:50 31.24 36.2 7.48 27.35 31.24 3.85 5.1 4.52 228.9 233.9 0.0 0.0 37.94
2020-02-28 00:55 31.68 34.66 6.9 28.05 31.68 3.67 4.21 3.65 243.5 235.5 0.0 0.0 37.89
2020-02-28 01:00 32.23 33.57 6.69 32.23 32.23 2.77 3.67 3.11 236.7 238.9 0.0 0.0 37.83
2020-02-28 01:05 31.93 34.35 6.93 28.34 31.93 3.67 3.67 3.18 239.4 238.1 0.0 0.0 37.78
2020-02-28 01:10 30.7 36.85 7.39 24.66 30.7 6.0 6.17 4.76 237.1 239.2 0.0 0.0 37.74
2020-02-28 01:15 30.38 38.01 7.78 24.57 30.38 5.64 6.35 5.57 233.5 237.3 0.0 0.0 37.69
2020-02-28 01:20 30.88 36.95 7.61 25.64 30.88 5.1 6.35 5.46 254.2 241.5 0.0 0.0 37.65
2020-02-28 01:25 32.05 34.76 7.3 26.7 32.05 5.46 6.53 5.53 247.9 249.8 0.0 0.0 37.62
2020-02-28 01:30 31.5 36.2 7.7 27.24 31.5 4.21 5.1 4.59 263.5 258.1 0.0 0.0 37.58
2020-02-28 01:35 30.45 37.6 7.61 25.13 30.45 5.1 5.64 4.74 246.5 251.2 0.0 0.0 37.53
2020-02-28 01:40 30.15 38.42 7.81 25.3 30.15 4.56 5.46 5.03 252.0 245.7 0.0 0.0 37.49
2020-02-28 01:45 30.27 37.63 7.46 24.92 30.27 5.1 5.64 5.12 245.0 251.4 0.0 0.0 37.45
2020-02-28 01:50 30.7 36.61 7.24 25.11 30.7 5.46 6.53 5.73 256.7 250.9 0.0 0.0 37.4
2020-02-28 01:55 31.24 35.55 7.08 25.9 31.24 5.28 5.82 4.99 256.7 258.5 0.0 0.0 37.38
2020-02-28 02:00 30.88 36.68 7.45 26.53 30.88 4.21 5.1 4.56 258.7 260.3 0.0 0.0 37.33
2020-02-28 02:05 30.07 38.9 8.02 25.4 30.07 4.38 5.28 4.76 254.4 254.9 0.0 0.0 37.27
2020-02-28 02:10 29.77 39.38 8.02 24.67 29.77 4.74 4.92 4.56 276.8 262.5 0.0 0.0 37.24
2020-02-28 02:15 30.15 39.17 8.24 23.71 30.15 6.35 6.35 5.28 256.3 260.0 0.0 0.0 37.2
2020-02-28 02:20 30.27 40.88 9.3 25.26 30.27 4.74 6.89 5.7 233.2 251.2 0.0 0.0 37.17
2020-02-28 02:25 28.9 42.01 8.67 22.67 28.9 5.82 6.53 5.79 243.2 238.9 0.0 0.0 37.13
2020-02-28 02:30 28.72 41.84 8.42 23.1 28.72 5.1 6.17 5.39 232.7 241.2 0.0 0.0 37.11
2020-02-28 02:35 28.72 42.08 8.54 21.87 28.72 6.53 6.53 5.3 245.0 241.5 0.0 0.0 37.08
2020-02-28 02:40 28.67 42.22 8.57 21.94 28.67 6.35 6.89 5.88 250.7 243.6 0.0 0.0 37.04
2020-02-28 02:45 28.9 41.43 8.36 22.37 28.9 6.17 7.07 6.51 246.2 245.8 0.0 0.0 37.0
2020-02-28 02:50 29.28 40.54 8.22 23.11 29.28 5.82 6.35 5.73 259.7 255.6 0.0 0.0 36.97
2020-02-28 02:55 30.2 38.28 7.78 24.36 30.2 5.64 6.17 5.73 269.8 259.3 0.0 0.0 36.93
2020-02-28 03:00 31.37 37.12 8.15 26.38 31.37 4.92 6.17 5.48 250.0 262.4 0.0 0.0 36.9
2020-02-28 03:05 31.24 36.61 7.73 26.58 31.24 4.56 5.28 4.85 257.1 262.0 0.0 0.0 36.86
2020-02-28 03:10 30.88 37.29 7.81 25.64 30.88 5.1 5.46 4.56 253.8 259.9 0.0 0.0 36.82
2020-02-28 03:15 29.59 40.47 8.46 23.79 29.59 5.46 5.46 4.9 247.1 243.8 0.0 0.0 36.79
2020-02-28 03:20 29.28 41.05 8.5 23.11 29.28 5.82 6.17 5.37 263.2 248.1 0.0 0.0 36.75
2020-02-28 03:25 30.76 37.84 8.02 24.44 30.76 6.35 7.43 6.35 261.3 259.1 0.0 0.0 36.73
2020-02-28 03:30 31.62 36.57 8.04 25.34 31.62 6.53 7.25 6.49 262.5 261.5 0.0 0.0 36.7
2020-02-28 03:35 31.98 36.4 8.26 26.04 31.98 6.17 7.43 6.6 261.8 260.1 0.0 0.0 36.68
2020-02-28 03:40 32.11 35.82 8.02 25.8 32.11 6.71 8.12 7.16 263.3 257.5 0.0 0.0 36.66
2020-02-28 03:45 31.98 36.71 8.45 26.04 31.98 6.17 7.61 6.51 263.8 259.3 0.0 0.0 36.63
2020-02-28 03:50 31.75 36.71 8.24 25.63 31.75 6.35 8.12 6.85 262.4 260.4 0.0 0.0 36.59
2020-02-28 03:55 31.87 36.78 8.39 25.27 31.87 7.07 7.43 6.71 271.5 270.4 0.0 0.0 36.57
2020-02-28 04:00 31.37 37.46 8.35 24.3 31.37 7.61 7.61 6.78 272.8 270.1 0.0 0.0 36.54
2020-02-28 04:05 31.24 38.11 8.62 25.16 31.24 6.17 8.3 7.16 255.7 266.8 0.0 0.0 36.5
2020-02-28 04:10 31.06 38.49 8.68 24.54 31.06 6.71 7.25 6.4 270.8 270.0 0.0 0.0 36.48
2020-02-28 04:15 30.81 39.27 8.9 25.24 30.81 5.46 7.61 6.29 273.7 268.1 0.0 0.0 36.45
2020-02-28 04:20 30.74 38.89 8.62 25.15 30.74 5.46 7.25 6.13 260.2 266.8 0.0 0.0 36.41
2020-02-28 04:25 31.3 38.48 8.88 25.37 31.3 6.0 6.53 5.88 266.3 261.1 0.0 0.0 36.39
2020-02-28 04:30 32.04 37.42 8.92 25.97 32.04 6.35 7.61 6.42 251.2 262.5 0.0 0.0 36.37
2020-02-28 04:35 32.47 36.84 8.96 26.36 32.47 6.53 7.43 6.67 272.0 267.8 0.0 0.0 36.34
2020-02-28 04:40 32.22 37.73 9.27 26.46 32.22 6.0 7.43 6.46 282.9 270.1 0.0 0.0 36.32
2020-02-28 04:45 31.48 39.1 9.4 24.55 31.48 7.43 7.78 6.91 269.2 269.1 0.0 0.0 36.28
2020-02-28 04:50 30.87 40.09 9.41 24.71 30.87 6.17 7.43 6.62 268.3 267.1 0.0 0.0 36.27
2020-02-28 04:55 30.43 41.11 9.58 24.63 30.43 5.64 6.53 5.91 265.9 270.5 0.0 0.0 36.25
2020-02-28 05:00 30.25 41.15 9.43 23.57 30.25 6.71 7.07 6.06 269.2 262.9 0.0 0.0 36.21
2020-02-28 05:05 30.74 39.85 9.16 23.9 30.74 7.07 7.96 6.93 269.9 269.2 0.0 0.0 36.19
2020-02-28 05:10 30.61 41.18 9.78 24.41 30.61 6.17 7.43 6.71 276.2 272.4 0.0 0.0 36.18
2020-02-28 05:15 30.61 41.18 9.78 23.5 30.61 7.43 7.43 6.6 268.0 273.8 0.0 0.0 36.14
2020-02-28 05:20 30.74 41.56 10.1 23.77 30.74 7.25 7.61 6.76 276.8 274.6 0.0 0.0 36.12
2020-02-28 05:25 30.99 40.74 9.88 24.08 30.99 7.25 8.12 7.16 254.1 268.8 0.0 0.0 36.1
2020-02-28 05:30 31.3 40.16 9.84 24.82 31.3 6.71 8.68 7.49 283.2 267.6 0.0 0.0 36.07
2020-02-28 05:35 31.98 38.65 9.6 25.16 31.98 7.43 8.12 7.31 246.4 257.5 0.0 0.0 36.05
2020-02-28 05:40 32.29 38.07 9.53 25.41 32.29 7.61 8.48 7.43 250.8 255.7 0.0 0.0 36.01
2020-02-28 05:45 32.11 38.35 9.54 25.67 32.11 6.89 8.3 7.45 248.1 254.5 0.0 0.0 36.0
2020-02-28 05:50 31.73 38.62 9.35 24.73 31.73 7.61 7.78 6.85 268.4 261.0 0.0 0.0 35.98
2020-02-28 05:55 31.6 39.37 9.67 25.19 31.6 6.71 8.12 7.16 263.4 265.6 0.0 0.0 35.96
2020-02-28 06:00 31.12 40.16 9.67 24.48 31.12 6.89 8.48 7.45 258.5 267.3 0.0 0.0 35.92
2020-02-28 06:05 30.69 41.11 9.8 23.96 30.69 6.89 8.12 7.34 258.4 263.6 0.0 0.0 35.91
2020-02-28 06:10 30.61 40.57 9.44 24.13 30.61 6.53 7.43 6.53 277.3 264.7 0.0 0.0 35.89
2020-02-28 06:15 31.17 39.68 9.45 26.32 31.17 4.74 6.89 5.77 294.7 276.0 0.0 0.0 35.85
2020-02-28 06:20 30.99 39.54 9.21 25.77 30.99 5.1 6.0 4.99 285.8 294.6 0.0 0.0 35.83
2020-02-28 06:25 30.99 39.23 9.04 23.29 30.99 8.48 8.48 6.67 269.7 281.1 0.0 0.0 35.82
2020-02-28 06:30 32.22 37.12 8.91 25.32 32.22 7.61 9.22 8.17 268.6 265.3 0.0 0.0 35.82
2020-02-28 06:35 32.34 37.76 9.4 25.36 32.34 7.78 8.48 7.92 279.3 267.2 0.0 0.001 35.8
2020-02-28 06:40 32.34 37.32 9.14 26.08 32.34 6.71 8.68 7.83 279.4 267.5 0.0 0.003 35.76
2020-02-28 06:45 31.37 39.95 9.78 26.21 31.37 5.1 8.48 6.49 262.4 277.0 0.0 0.006 35.74
2020-02-28 06:50 32.11 37.46 9.01 26.19 32.11 6.17 7.96 6.42 286.8 273.5 0.0 0.009 35.73
2020-02-28 06:55 33.08 36.5 9.3 26.96 33.08 6.71 8.68 7.29 259.1 265.9 0.0 0.013 35.71
2020-02-28 07:00 33.82 36.02 9.67 27.61 33.82 7.07 7.96 7.23 255.9 259.6 0.0 0.013 35.69
2020-02-28 07:05 34.2 36.16 10.09 28.31 34.2 6.71 7.61 6.78 239.3 255.1 0.0 0.013 35.65
2020-02-28 07:10 35.73 34.55 10.43 29.69 35.73 7.43 8.48 6.98 257.3 263.9 0.0 0.018 35.65
2020-02-28 07:15 37.63 30.72 9.49 30.64 37.63 10.09 10.45 8.66 285.8 273.0 0.0 0.025 35.62
2020-02-28 07:20 38.73 30.28 10.13 33.43 38.73 7.25 11.16 8.99 281.2 283.2 0.0 0.028 35.62
2020-02-28 07:25 39.09 29.25 9.67 32.07 39.09 10.98 11.88 9.84 277.5 279.3 0.0 0.029 35.56
2020-02-28 07:30 39.88 27.95 9.34 32.99 39.88 11.16 13.31 10.09 269.8 278.4 0.0 0.034 35.58
2020-02-28 07:35 40.62 27.81 9.87 35.08 40.62 8.48 13.31 10.16 270.6 275.2 0.0 0.037 35.56
2020-02-28 07:40 40.93 26.34 8.92 33.24 40.93 14.2 14.2 9.89 292.2 282.3 0.0 0.04 35.51
2020-02-28 07:45 41.29 25.96 8.91 33.7 41.29 14.2 16.17 12.33 266.4 278.5 0.0 0.043 35.51
2020-02-28 07:50 41.83 26.27 9.64 36.73 41.83 8.12 13.67 10.51 275.8 283.6 0.0 0.046 35.49
2020-02-28 07:55 42.21 25.75 9.52 36.6 42.21 9.4 14.56 10.51 305.8 292.7 0.0 0.049 35.47
2020-02-28 08:00 42.39 25.03 9.04 36.05 42.39 11.34 15.64 11.43 300.4 289.6 0.0 0.053 35.46
2020-02-28 08:05 42.98 24.32 8.9 36.48 42.98 12.24 15.1 11.14 297.9 292.1 0.0 0.056 35.46
2020-02-28 08:10 43.16 24.14 8.89 36.53 43.16 12.77 14.2 11.59 303.7 295.6 0.0 0.059 35.44
2020-02-28 08:15 43.16 24.31 9.05 36.77 43.16 12.06 15.99 11.95 314.0 295.9 0.0 0.063 35.42
2020-02-28 08:20 43.21 24.93 9.66 37.22 43.21 10.98 13.85 10.67 263.1 295.7 0.0 0.066 35.4
2020-02-28 08:25 43.47 24.31 9.31 37.74 43.47 10.45 14.38 10.16 308.0 296.3 0.0 0.069 35.38
2020-02-28 08:30 43.57 24.89 9.93 39.02 43.57 7.78 14.03 9.62 296.9 296.9 0.0 0.072 35.38
2020-02-28 08:35 43.57 25.33 10.32 39.11 43.57 7.61 13.13 9.51 301.0 301.4 0.0 0.075 35.35
2020-02-28 08:40 43.2 24.2 8.98 37.61 43.2 9.91 13.67 10.56 303.5 293.0 0.0 0.079 35.33
2020-02-28 08:45 43.5 24.44 9.46 39.2 43.5 7.25 13.85 10.4 300.8 297.5 0.0 0.082 35.33
2020-02-28 08:50 43.68 24.2 9.39 39.06 43.68 7.96 13.49 10.8 263.1 286.5 0.0 0.086 35.31
2020-02-28 08:55 44.91 22.87 9.17 39.59 44.91 10.27 14.2 9.13 280.1 292.3 0.0 0.088 35.29
2020-02-28 09:00 44.6 22.94 8.98 39.15 44.6 10.45 14.03 10.8 327.5 294.5 0.0 0.092 35.29
2020-02-28 09:05 45.45 22.87 9.63 40.07 45.45 10.8 15.1 11.14 294.2 289.1 0.0 0.095 35.29
2020-02-28 09:10 46.08 21.67 8.96 40.01 46.08 13.49 15.1 11.16 304.3 288.4 0.0 0.098 35.26
2020-02-28 09:15 45.82 22.05 9.14 39.96 45.82 12.59 13.85 11.54 283.4 287.8 0.0 0.1 35.26
2020-02-28 09:20 46.18 22.76 10.15 41.65 46.18 9.04 13.67 11.14 313.3 297.3 0.0 0.101 35.26
2020-02-28 09:25 46.69 21.47 9.27 40.64 46.69 14.03 14.03 11.54 280.9 286.7 0.0 0.102 35.24
2020-02-28 09:30 47.61 20.72 9.25 43.47 47.61 8.86 14.2 9.98 281.9 289.1 0.0 0.107 35.22
2020-02-28 09:35 47.66 20.89 9.47 43.27 47.66 9.57 12.42 10.13 298.7 292.4 0.0 0.112 35.22
2020-02-28 09:40 48.33 20.34 9.44 43.78 48.33 10.45 13.49 9.6 300.2 293.1 0.0 0.116 35.22
2020-02-28 09:45 48.27 19.72 8.7 43.31 48.27 11.7 12.95 10.22 297.0 291.2 0.0 0.118 35.2
2020-02-28 09:50 49.32 19.04 8.79 45.26 49.32 9.73 11.88 8.93 244.7 281.5 0.0 0.121 35.2
2020-02-28 09:55 49.42 20.44 10.46 46.2 49.42 7.61 14.74 9.78 275.6 285.8 0.0 0.126 35.22
2020-02-28 10:00 49.6 17.54 7.21 44.13 49.6 14.92 14.92 9.75 315.6 297.1 0.0 0.131 35.24
2020-02-28 10:05 49.96 17.98 8.05 45.09 49.96 12.95 14.2 10.72 289.3 303.8 0.0 0.132 35.28
2020-02-28 10:10 49.3 19.04 8.77 45.35 49.3 9.4 14.38 10.22 273.6 296.6 0.0 0.108 35.31
2020-02-28 10:15 49.78 19.17 9.33 46.15 49.78 8.86 12.24 9.71 273.4 299.5 0.0 0.12 35.37
2020-02-28 10:20 50.32 18.59 9.09 50.32 50.32 10.8 14.74 9.73 286.0 284.9 0.0 0.122 35.42

Data is courtesy of the NM Climate Center. DO NOT USE IN LEGAL PROCEEDINGS.